createdAt,value
2022-10-29T00:00:43.817Z,101592.16
2022-10-29T00:03:48.415Z,101603.59
2022-10-29T00:09:58.545Z,101600.16
2022-10-29T00:13:02.578Z,101603.19
2022-10-29T00:16:19.159Z,101592.53
2022-10-29T00:19:21.372Z,101596.94
2022-10-29T00:22:24.043Z,101610.78
2022-10-29T00:25:26.268Z,101615.88
2022-10-29T00:28:29.202Z,101604.56
2022-10-29T00:31:31.479Z,101615.50
2022-10-29T00:34:34.086Z,101625.91
2022-10-29T00:37:36.417Z,101606.81
2022-10-29T00:40:38.993Z,101615.50
2022-10-29T00:43:45.840Z,101613.37
2022-10-29T00:46:52.409Z,101593.66
2022-10-29T00:49:59.022Z,101614.88
2022-10-29T00:53:02.407Z,101610.38
2022-10-29T00:56:05.741Z,101615.56
2022-10-29T00:59:09.378Z,101608.31
2022-10-29T01:02:12.158Z,101609.13
2022-10-29T01:05:19.937Z,101607.47
2022-10-29T01:08:22.675Z,101602.56
2022-10-29T01:12:04.360Z,101599.19
2022-10-29T01:15:17.447Z,101590.91
2022-10-29T01:18:24.787Z,101579.66
2022-10-29T01:21:34.515Z,101563.56
2022-10-29T01:24:49.276Z,101552.19
2022-10-29T01:28:12.839Z,101562.06
2022-10-29T01:31:15.382Z,101567.59
2022-10-29T01:34:25.655Z,101562.06
2022-10-29T01:37:50.139Z,101553.91
2022-10-29T01:41:04.772Z,101552.75
2022-10-29T01:44:30.277Z,101555.22
2022-10-29T01:47:40.699Z,101549.00
2022-10-29T01:50:48.000Z,101548.19
2022-10-29T01:53:51.575Z,101537.56
2022-10-29T01:56:58.645Z,101538.91
2022-10-29T02:00:06.071Z,101537.69
2022-10-29T02:03:22.026Z,101523.53
2022-10-29T02:06:42.209Z,101531.56
2022-10-29T02:09:56.470Z,101520.06
2022-10-29T02:12:59.742Z,101525.78
2022-10-29T02:16:06.763Z,101547.75
2022-10-29T02:19:09.356Z,101541.59
2022-10-29T02:22:11.556Z,101539.84
2022-10-29T02:25:14.083Z,101520.78
2022-10-29T02:28:16.395Z,101529.13
2022-10-29T02:31:18.920Z,101517.19
2022-10-29T02:34:21.120Z,101538.22
2022-10-29T02:37:23.614Z,101541.78
2022-10-29T02:40:25.795Z,101521.87
2022-10-29T02:43:28.293Z,101546.09
2022-10-29T02:46:30.627Z,101521.13
2022-10-29T02:49:33.117Z,101525.03
2022-10-29T02:52:35.299Z,101539.19
2022-10-29T02:55:37.855Z,101523.78
2022-10-29T02:58:40.089Z,101533.19
2022-10-29T03:01:42.668Z,101513.59
2022-10-29T03:04:44.963Z,101515.84
2022-10-29T03:07:47.807Z,101529.94
2022-10-29T03:10:49.996Z,101525.03
2022-10-29T03:13:52.524Z,101533.69
2022-10-29T03:16:54.746Z,101540.50
2022-10-29T03:19:57.240Z,101531.13
2022-10-29T03:22:59.454Z,101539.06
2022-10-29T03:26:02.283Z,101537.63
2022-10-29T03:29:04.496Z,101528.22
2022-10-29T03:32:06.990Z,101526.78
2022-10-29T03:35:11.006Z,101515.44
2022-10-29T03:38:13.551Z,101512.50
2022-10-29T03:41:15.778Z,101499.94
2022-10-29T03:44:18.251Z,101499.00
2022-10-29T03:47:20.469Z,101502.69
2022-10-29T03:50:22.944Z,101509.41
2022-10-29T03:53:25.936Z,101501.06
2022-10-29T03:56:28.502Z,101519.00
2022-10-29T03:59:30.697Z,101518.00
2022-10-29T04:02:33.333Z,101501.19
2022-10-29T04:05:35.903Z,101503.31
2022-10-29T04:08:38.655Z,101496.81
2022-10-29T04:11:41.136Z,101524.41
2022-10-29T04:14:45.717Z,101505.84
2022-10-29T04:17:51.145Z,101511.34
2022-10-29T04:28:41.395Z,101485.63
2022-10-29T04:31:08.349Z,101534.69
2022-10-29T04:34:10.576Z,101533.06
2022-10-29T04:37:13.092Z,101517.87
2022-10-29T04:40:15.486Z,101533.81
2022-10-29T04:43:18.367Z,101523.44
2022-10-29T04:46:20.599Z,101526.88
2022-10-29T04:49:23.238Z,101522.81
2022-10-29T04:52:25.775Z,101532.41
2022-10-29T04:55:28.983Z,101522.59
2022-10-29T04:58:31.241Z,101518.25
2022-10-29T05:04:35.966Z,101522.44
2022-10-29T05:07:38.468Z,101520.78
2022-10-29T05:10:40.729Z,101526.09
2022-10-29T05:13:45.172Z,101512.22
2022-10-29T05:16:47.698Z,101515.19
2022-10-29T05:19:50.241Z,101535.69
2022-10-29T05:23:03.993Z,101513.28
2022-10-29T05:26:06.528Z,101517.94
2022-10-29T05:29:08.720Z,101524.50
2022-10-29T05:32:11.225Z,101526.94
2022-10-29T05:35:13.556Z,101505.50
2022-10-29T05:38:16.822Z,101513.91
2022-10-29T05:41:19.082Z,101510.41
2022-10-29T05:44:21.589Z,101523.59
2022-10-29T05:47:24.069Z,101512.06
2022-10-29T05:50:27.218Z,101522.47
2022-10-29T05:53:29.463Z,101519.59
2022-10-29T05:56:32.017Z,101510.06
2022-10-29T05:59:34.223Z,101522.81
2022-10-29T06:02:36.754Z,101508.53
2022-10-29T06:05:39.306Z,101505.94
2022-10-29T06:08:41.614Z,101516.97
2022-10-29T06:11:44.086Z,101515.22
2022-10-29T06:14:46.312Z,101503.81
2022-10-29T06:17:49.159Z,101493.22
2022-10-29T06:20:51.397Z,101525.66
2022-10-29T06:23:54.222Z,101523.38
2022-10-29T06:26:56.423Z,101531.78
2022-10-29T06:29:58.969Z,101514.94
2022-10-29T06:33:02.320Z,101535.28
2022-10-29T06:36:05.382Z,101538.53
2022-10-29T06:39:07.681Z,101545.22
2022-10-29T06:42:10.200Z,101548.59
2022-10-29T06:45:13.126Z,101542.03
2022-10-29T06:48:20.663Z,101531.50
2022-10-29T06:51:24.301Z,101529.34
2022-10-29T06:54:26.848Z,101538.56
2022-10-29T06:57:29.871Z,101516.53
2022-10-29T07:00:33.753Z,101538.59
2022-10-29T07:03:36.073Z,101528.19
2022-10-29T07:06:38.589Z,101516.66
2022-10-29T07:09:40.860Z,101512.22
2022-10-29T07:12:44.498Z,101519.19
2022-10-29T07:15:47.185Z,101517.97
2022-10-29T07:18:50.042Z,101539.50
2022-10-29T07:21:52.296Z,101527.28
2022-10-29T07:24:57.207Z,101545.53
2022-10-29T07:28:16.250Z,101563.09
2022-10-29T07:31:18.934Z,101574.34
2022-10-29T07:34:21.142Z,101558.03
2022-10-29T07:37:23.855Z,101577.72
2022-10-29T07:40:26.214Z,101555.03
2022-10-29T07:43:31.001Z,101556.16
2022-10-29T07:46:33.331Z,101558.72
2022-10-29T07:49:35.958Z,101559.41
2022-10-29T07:52:40.072Z,101509.00
2022-10-29T07:55:45.216Z,101551.38
2022-10-29T07:58:47.692Z,101554.16
2022-10-29T08:01:50.362Z,101548.69
2022-10-29T08:04:53.012Z,101544.94
2022-10-29T08:07:55.962Z,101540.25
2022-10-29T08:11:03.341Z,101528.50
2022-10-29T08:14:06.432Z,101536.34
2022-10-29T08:17:08.969Z,101533.81
2022-10-29T08:20:11.862Z,101548.81
2022-10-29T08:23:14.836Z,101551.28
2022-10-29T08:26:17.138Z,101544.00
2022-10-29T08:29:19.907Z,101540.88
2022-10-29T08:32:22.190Z,101548.91
2022-10-29T08:35:24.731Z,101555.84
2022-10-29T08:38:27.028Z,101519.50
2022-10-29T08:42:07.189Z,101543.59
2022-10-29T08:45:24.325Z,101553.97
2022-10-29T08:48:46.586Z,101543.06
2022-10-29T08:51:57.807Z,101523.94
2022-10-29T08:55:19.802Z,101521.00
2022-10-29T08:58:21.937Z,101535.25
2022-10-29T09:01:24.931Z,101553.03
2022-10-29T09:04:28.963Z,101535.28
2022-10-29T09:07:59.696Z,101537.03
2022-10-29T09:11:40.910Z,101550.59
2022-10-29T09:14:52.639Z,101535.91
2022-10-29T09:18:03.576Z,101534.87
2022-10-29T09:21:27.223Z,101544.63
2022-10-29T09:24:52.690Z,101547.72
2022-10-29T09:28:22.092Z,101529.66
2022-10-29T09:31:40.785Z,101526.47
2022-10-29T09:34:47.449Z,101529.94
2022-10-29T09:37:55.054Z,101525.41
2022-10-29T09:41:00.031Z,101526.22
2022-10-29T09:44:16.895Z,101539.84
2022-10-29T09:47:41.235Z,101535.97
2022-10-29T09:51:08.313Z,101535.06
2022-10-29T09:54:11.677Z,101522.16
2022-10-29T09:57:36.430Z,101507.16
2022-10-29T10:00:38.928Z,101529.28
2022-10-29T10:03:48.918Z,101511.81
2022-10-29T10:07:19.179Z,101522.03
2022-10-29T10:10:23.621Z,101508.78
2022-10-29T10:13:32.019Z,101498.88
2022-10-29T10:16:34.676Z,101506.72
2022-10-29T10:19:43.528Z,101515.88
2022-10-29T10:22:47.419Z,101498.28
2022-10-29T10:25:52.801Z,101490.69
2022-10-29T10:29:19.197Z,101502.69
2022-10-29T10:32:25.758Z,101501.91
2022-10-29T10:35:31.964Z,101507.97
2022-10-29T10:38:46.795Z,101499.41
2022-10-29T10:41:50.919Z,101476.72
2022-10-29T10:44:58.014Z,101486.47
2022-10-29T10:48:01.580Z,101478.06
2022-10-29T10:51:26.225Z,101464.75
2022-10-29T10:54:37.326Z,101481.03
2022-10-29T10:57:50.059Z,101469.78
2022-10-29T11:01:07.132Z,101482.03
2022-10-29T11:04:27.969Z,101463.47
2022-10-29T11:07:34.429Z,101475.59
2022-10-29T11:10:50.143Z,101478.13
2022-10-29T11:13:55.052Z,101452.34
2022-10-29T11:17:01.347Z,101467.69
2022-10-29T11:20:27.653Z,101465.16
2022-10-29T11:24:05.179Z,101467.22
2022-10-29T11:27:16.280Z,101468.47
2022-10-29T11:30:19.930Z,101461.44
2022-10-29T11:33:28.688Z,101465.56
2022-10-29T11:36:38.980Z,101459.12
2022-10-29T11:39:52.157Z,101432.53
2022-10-29T11:42:54.582Z,101460.56
2022-10-29T11:46:22.152Z,101440.84
2022-10-29T11:50:22.163Z,101446.72
2022-10-29T11:53:49.933Z,101433.09
2022-10-29T11:57:14.318Z,101446.25
2022-10-29T12:00:20.322Z,101428.88
2022-10-29T12:03:44.154Z,101423.09
2022-10-29T12:07:27.609Z,101428.97
2022-10-29T12:10:45.722Z,101431.59
2022-10-29T12:14:04.110Z,101409.69
2022-10-29T12:17:32.852Z,101408.16
2022-10-29T12:20:50.195Z,101425.38
2022-10-29T12:24:05.959Z,101419.22
2022-10-29T12:27:15.271Z,101386.22
2022-10-29T12:30:19.328Z,101400.91
2022-10-29T12:33:27.531Z,101382.03
2022-10-29T12:36:35.586Z,101396.53
2022-10-29T12:39:44.795Z,101385.78
2022-10-29T12:42:49.567Z,101391.00
2022-10-29T12:46:21.088Z,101382.37
2022-10-29T12:49:42.638Z,101377.81
2022-10-29T12:52:47.695Z,101366.56
2022-10-29T12:55:51.812Z,101374.19
2022-10-29T12:58:59.752Z,101360.06
2022-10-29T13:02:19.560Z,101358.94
2022-10-29T13:05:24.584Z,101363.47
2022-10-29T13:08:34.550Z,101368.34
2022-10-29T13:11:51.482Z,101365.41
2022-10-29T13:15:02.190Z,101355.28
2022-10-29T13:18:21.040Z,101367.69
2022-10-29T13:21:57.228Z,101367.84
2022-10-29T13:25:33.440Z,101380.62
2022-10-29T13:28:35.911Z,101373.94
2022-10-29T13:31:45.704Z,101362.72
2022-10-29T13:34:51.856Z,101357.97
2022-10-29T13:38:16.363Z,101365.81
2022-10-29T13:41:40.301Z,101360.47
2022-10-29T13:44:43.239Z,101367.16
2022-10-29T13:47:46.481Z,101357.50
2022-10-29T13:50:54.345Z,101360.75
2022-10-29T13:54:06.147Z,101359.00
2022-10-29T13:57:26.193Z,101344.47
2022-10-29T14:00:32.546Z,101358.84
2022-10-29T14:03:35.157Z,101339.50
2022-10-29T14:06:40.033Z,101356.31
2022-10-29T14:09:46.955Z,101334.81
2022-10-29T14:12:55.745Z,101333.62
2022-10-29T14:16:09.613Z,101330.88
2022-10-29T14:19:20.954Z,101348.41
2022-10-29T14:22:23.404Z,101348.91
2022-10-29T14:25:35.866Z,101348.56
2022-10-29T14:28:38.374Z,101337.03
2022-10-29T14:31:40.636Z,101352.97
2022-10-29T14:34:45.314Z,101348.41
2022-10-29T14:37:49.270Z,101351.38
2022-10-29T14:40:51.984Z,101354.59
2022-10-29T14:44:03.290Z,101344.31
2022-10-29T14:47:19.647Z,101338.31
2022-10-29T14:50:25.990Z,101340.75
2022-10-29T14:53:35.220Z,101344.97
2022-10-29T14:56:41.900Z,101323.19
2022-10-29T14:59:49.520Z,101341.25
2022-10-29T15:02:54.565Z,101341.91
2022-10-29T15:06:18.010Z,101343.47
2022-10-29T15:09:27.999Z,101342.81
2022-10-29T15:12:39.038Z,101341.03
2022-10-29T15:15:53.552Z,101330.00
2022-10-29T15:18:57.922Z,101334.41
2022-10-29T15:22:00.309Z,101326.91
2022-10-29T15:25:08.371Z,101328.84
2022-10-29T15:28:14.814Z,101316.34
2022-10-29T15:31:29.533Z,101301.06
2022-10-29T15:34:34.704Z,101317.31
2022-10-29T15:37:44.041Z,101323.31
2022-10-29T15:41:14.102Z,101298.44
2022-10-29T15:44:39.746Z,101320.41
2022-10-29T15:47:44.627Z,101328.66
2022-10-29T15:50:47.302Z,101318.25
2022-10-29T15:53:49.922Z,101326.88
2022-10-29T15:56:52.786Z,101321.03
2022-10-29T15:59:57.379Z,101295.47
2022-10-29T16:03:17.412Z,101332.56
2022-10-29T16:06:20.247Z,101350.72
2022-10-29T16:09:22.593Z,101345.78
2022-10-29T16:12:26.009Z,101352.50
2022-10-29T16:15:28.406Z,101337.22
2022-10-29T16:18:30.942Z,101331.31
2022-10-29T16:21:33.386Z,101312.25
2022-10-29T16:24:35.968Z,101324.09
2022-10-29T16:27:38.285Z,101343.66
2022-10-29T16:30:41.056Z,101338.13
2022-10-29T16:33:43.346Z,101332.63
2022-10-29T16:36:46.537Z,101316.00
2022-10-29T16:39:48.774Z,101327.59
2022-10-29T16:42:59.453Z,101320.94
2022-10-29T16:46:05.268Z,101330.81
2022-10-29T16:49:08.220Z,101328.06
2022-10-29T16:52:15.130Z,101288.72
2022-10-29T16:55:21.402Z,101307.16
2022-10-29T16:58:23.855Z,101314.13
2022-10-29T17:01:26.557Z,101327.78
2022-10-29T17:04:29.051Z,101326.66
2022-10-29T17:07:31.605Z,101300.66
2022-10-29T17:10:34.859Z,101316.62
2022-10-29T17:13:38.172Z,101313.22
2022-10-29T17:16:40.515Z,101284.37
2022-10-29T17:19:43.068Z,101313.69
2022-10-29T17:22:45.489Z,101334.50
2022-10-29T17:25:51.644Z,101335.78
2022-10-29T17:28:53.866Z,101319.09
2022-10-29T17:31:56.524Z,101306.41
2022-10-29T17:34:59.883Z,101308.84
2022-10-29T17:38:02.571Z,101304.78
2022-10-29T17:41:05.105Z,101294.22
2022-10-29T17:44:07.597Z,101286.09
2022-10-29T17:47:11.172Z,101294.72
2022-10-29T17:50:13.777Z,101289.03
2022-10-29T17:53:16.063Z,101313.88
2022-10-29T17:56:18.928Z,101307.41
2022-10-29T17:59:21.331Z,101335.19
2022-10-29T18:02:24.066Z,101307.25
2022-10-29T18:05:26.797Z,101317.31
2022-10-29T18:08:30.179Z,101311.97
2022-10-29T18:11:33.110Z,101312.44
2022-10-29T18:14:35.359Z,101302.97
2022-10-29T18:17:37.967Z,101311.41
2022-10-29T18:20:40.225Z,101315.31
2022-10-29T18:23:49.509Z,101332.37
2022-10-29T18:26:52.177Z,101311.22
2022-10-29T18:29:54.870Z,101301.81
2022-10-29T18:32:57.452Z,101301.00
2022-10-29T18:36:00.217Z,101301.81
2022-10-29T18:39:06.604Z,101299.88
2022-10-29T18:42:09.897Z,101298.41
2022-10-29T18:45:12.205Z,101316.81
2022-10-29T18:48:14.854Z,101296.31
2022-10-29T18:51:28.626Z,101291.47
2022-10-29T18:54:31.357Z,101295.56
2022-10-29T18:57:34.713Z,101277.03
2022-10-29T19:00:41.090Z,101291.50
2022-10-29T19:03:51.421Z,101289.56
2022-10-29T19:06:57.014Z,101280.28
2022-10-29T19:09:59.316Z,101268.22
2022-10-29T19:13:01.828Z,101258.66
2022-10-29T19:16:12.588Z,101272.47
2022-10-29T19:19:17.227Z,101280.44
2022-10-29T19:22:22.233Z,101279.59
2022-10-29T19:25:25.146Z,101269.84
2022-10-29T19:28:29.902Z,101273.91
2022-10-29T19:31:38.471Z,101256.19
2022-10-29T19:34:48.168Z,101250.03
2022-10-29T19:37:58.515Z,101275.22
2022-10-29T19:41:03.394Z,101237.34
2022-10-29T19:44:06.803Z,101269.25
2022-10-29T19:47:11.711Z,101274.13
2022-10-29T19:50:16.111Z,101268.78
2022-10-29T19:53:18.447Z,101268.78
2022-10-29T19:56:23.643Z,101267.97
2022-10-29T19:59:31.701Z,101263.25
2022-10-29T20:02:39.575Z,101258.84
2022-10-29T20:05:44.176Z,101263.53
2022-10-29T20:08:47.024Z,101252.69
2022-10-29T20:11:49.660Z,101222.28
2022-10-29T20:14:51.987Z,101233.69
2022-10-29T20:17:55.187Z,101245.69
2022-10-29T20:20:57.877Z,101246.06
2022-10-29T20:24:01.683Z,101253.00
2022-10-29T20:27:04.200Z,101245.69
2022-10-29T20:30:07.376Z,101257.56
2022-10-29T20:33:10.203Z,101234.47
2022-10-29T20:36:12.835Z,101260.34
2022-10-29T20:39:15.681Z,101261.31
2022-10-29T20:42:21.411Z,101255.00
2022-10-29T20:45:28.099Z,101231.41
2022-10-29T20:48:30.622Z,101260.00
2022-10-29T20:51:32.773Z,101258.53
2022-10-29T20:54:36.319Z,101252.22
2022-10-29T20:57:38.883Z,101251.56
2022-10-29T21:00:41.658Z,101263.13
2022-10-29T21:03:44.219Z,101252.34
2022-10-29T21:06:47.023Z,101243.28
2022-10-29T21:09:49.694Z,101248.13
2022-10-29T21:12:52.309Z,101253.53
2022-10-29T21:15:54.725Z,101255.13
2022-10-29T21:19:02.280Z,101260.03
2022-10-29T21:22:04.602Z,101243.13
2022-10-29T21:25:07.735Z,101249.12
2022-10-29T21:28:11.208Z,101220.19
2022-10-29T21:31:13.852Z,101258.25
2022-10-29T21:34:16.214Z,101255.78
2022-10-29T21:37:18.863Z,101261.97
2022-10-29T21:40:21.282Z,101262.97
2022-10-29T21:43:26.210Z,101263.44
2022-10-29T21:46:31.879Z,101263.97
2022-10-29T21:49:34.725Z,101263.31
2022-10-29T21:52:37.067Z,101263.78
2022-10-29T21:55:39.931Z,101261.69
2022-10-29T21:58:42.752Z,101220.37
2022-10-29T22:01:50.324Z,101270.31
2022-10-29T22:04:53.076Z,101246.25
2022-10-29T22:07:56.532Z,101251.78
2022-10-29T22:11:00.945Z,101245.25
2022-10-29T22:14:03.239Z,101250.78
2022-10-29T22:17:05.826Z,101249.16
2022-10-29T22:20:08.607Z,101251.13
2022-10-29T22:23:11.139Z,101246.38
2022-10-29T22:26:15.336Z,101251.91
2022-10-29T22:29:17.918Z,101246.72
2022-10-29T22:32:20.336Z,101258.44
2022-10-29T22:35:22.896Z,101244.13
2022-10-29T22:38:25.159Z,101241.03
2022-10-29T22:41:29.378Z,101235.50
2022-10-29T22:44:31.756Z,101228.84
2022-10-29T22:47:34.292Z,101239.91
2022-10-29T22:50:36.508Z,101222.84
2022-10-29T22:53:39.058Z,101210.63
2022-10-29T22:56:41.326Z,101216.16
2022-10-29T22:59:43.962Z,101207.38
2022-10-29T23:03:12.727Z,101222.34
2022-10-29T23:06:18.465Z,101213.41
2022-10-29T23:09:20.702Z,101205.09
2022-10-29T23:12:23.232Z,101194.06
2022-10-29T23:15:28.511Z,101215.00
2022-10-29T23:18:31.074Z,101201.34
2022-10-29T23:21:34.640Z,101213.88
2022-10-29T23:24:37.116Z,101196.81
2022-10-29T23:27:39.364Z,101217.28
2022-10-29T23:30:41.866Z,101216.78
2022-10-29T23:33:49.167Z,101202.78
2022-10-29T23:39:54.882Z,101207.38
2022-10-29T23:42:57.432Z,101207.84
2022-10-29T23:45:59.920Z,101202.16
2022-10-29T23:49:02.460Z,101200.69
2022-10-29T23:52:07.739Z,101205.25
2022-10-29T23:55:10.270Z,101202.63
2022-10-29T23:58:13.747Z,101200.88
